Chatham, Louisiana
Current Conditions -  °F | °C
As of 6:15 PM on Friday 28 Nov 2014 (Local Time) from KRSN Reporting Station
Clear Clear  
Wind Chill: 52°   Ceiling: Unl
Heat Index: 52°   Visibility: 10mi
Dew Point: 39°   Wind: 6mph
Humidity: 62%   Direction: 170°S
Pressure: 30.21"   Gusts: NA
Location:  32.31°N, 92.45°W
Report Text: KRSN 290015Z AUTO 17005KT 10SM CLR 11/04 A3021 RMK AO2 T01090038
Loading
Personal Weather Stations






























Interactive Weather Map New forecast layout! Learn more

10-Day Weather Forecast

Advertisements
Track Severe Weather on mobile